sensor_id;sensor_type;location;lat;lon;timestamp;pressure;altitude;pressure_sealevel;temperature;humidity
36692;BME280;22678;52.052;4.242;2022-12-11T00:00:20;101143.38;;;2.24;100.00
36692;BME280;22678;52.052;4.242;2022-12-11T00:02:45;101149.28;;;2.20;100.00
36692;BME280;22678;52.052;4.242;2022-12-11T00:05:11;101137.13;;;2.19;100.00
36692;BME280;22678;52.052;4.242;2022-12-11T00:07:36;101157.31;;;2.28;100.00
36692;BME280;22678;52.052;4.242;2022-12-11T00:10:02;101149.47;;;2.26;100.00
36692;BME280;22678;52.052;4.242;2022-12-11T00:12:29;101151.97;;;2.23;100.00
36692;BME280;22678;52.052;4.242;2022-12-11T00:14:54;101138.91;;;2.20;100.00
36692;BME280;22678;52.052;4.242;2022-12-11T00:17:20;101141.53;;;2.22;100.00
36692;BME280;22678;52.052;4.242;2022-12-11T00:19:45;101150.06;;;2.18;100.00
36692;BME280;22678;52.052;4.242;2022-12-11T00:22:10;101132.63;;;2.12;100.00
36692;BME280;22678;52.052;4.242;2022-12-11T00:24:36;101154.56;;;2.23;100.00
36692;BME280;22678;52.052;4.242;2022-12-11T00:27:01;101150.31;;;2.25;100.00
36692;BME280;22678;52.052;4.242;2022-12-11T00:29:27;101145.09;;;2.24;100.00
36692;BME280;22678;52.052;4.242;2022-12-11T00:31:52;101152.09;;;2.28;100.00
36692;BME280;22678;52.052;4.242;2022-12-11T00:34:17;101143.28;;;2.21;100.00
36692;BME280;22678;52.052;4.242;2022-12-11T00:36:42;101140.63;;;2.20;100.00
36692;BME280;22678;52.052;4.242;2022-12-11T00:39:08;101149.47;;;2.26;100.00
36692;BME280;22678;52.052;4.242;2022-12-11T00:41:33;101136.94;;;2.13;100.00
36692;BME280;22678;52.052;4.242;2022-12-11T00:43:58;101143.31;;;2.23;100.00
36692;BME280;22678;52.052;4.242;2022-12-11T00:46:24;101124.75;;;2.10;100.00
36692;BME280;22678;52.052;4.242;2022-12-11T00:48:49;101148.50;;;2.23;100.00
36692;BME280;22678;52.052;4.242;2022-12-11T00:51:16;101140.50;;;2.15;100.00
36692;BME280;22678;52.052;4.242;2022-12-11T00:53:41;101124.84;;;2.12;100.00
36692;BME280;22678;52.052;4.242;2022-12-11T00:56:11;101143.28;;;2.21;100.00
36692;BME280;22678;52.052;4.242;2022-12-11T00:58:37;101120.47;;;2.11;100.00
36692;BME280;22678;52.052;4.242;2022-12-11T01:01:08;101142.31;;;2.19;100.00
36692;BME280;22678;52.052;4.242;2022-12-11T01:03:34;101131.63;;;2.08;100.00
36692;BME280;22678;52.052;4.242;2022-12-11T01:05:59;101145.69;;;2.15;100.00
36692;BME280;22678;52.052;4.242;2022-12-11T01:08:24;101121.84;;;2.00;100.00
36692;BME280;22678;52.052;4.242;2022-12-11T01:10:50;101149.09;;;2.14;100.00
36692;BME280;22678;52.052;4.242;2022-12-11T01:13:15;101147.25;;;2.10;100.00
36692;BME280;22678;52.052;4.242;2022-12-11T01:15:43;101159.38;;;2.11;100.00
36692;BME280;22678;52.052;4.242;2022-12-11T01:18:11;101158.63;;;2.14;100.00
36692;BME280;22678;52.052;4.242;2022-12-11T01:20:39;101165.59;;;2.16;100.00
36692;BME280;22678;52.052;4.242;2022-12-11T01:23:05;101161.16;;;2.12;100.00
36692;BME280;22678;52.052;4.242;2022-12-11T01:25:31;101164.66;;;2.14;100.00
36692;BME280;22678;52.052;4.242;2022-12-11T01:27:57;101169.94;;;2.17;100.00
36692;BME280;22678;52.052;4.242;2022-12-11T01:30:24;101165.53;;;2.15;100.00
36692;BME280;22678;52.052;4.242;2022-12-11T01:32:49;101158.56;;;2.12;100.00
36692;BME280;22678;52.052;4.242;2022-12-11T01:35:16;101161.03;;;2.09;100.00
36692;BME280;22678;52.052;4.242;2022-12-11T01:37:42;101172.50;;;2.16;100.00
36692;BME280;22678;52.052;4.242;2022-12-11T01:40:08;101163.53;;;2.06;100.00
36692;BME280;22678;52.052;4.242;2022-12-11T01:42:34;101166.09;;;2.04;100.00
36692;BME280;22678;52.052;4.242;2022-12-11T01:45:23;101158.09;;;1.98;100.00
36692;BME280;22678;52.052;4.242;2022-12-11T01:47:51;101157.16;;;1.95;100.00
36692;BME280;22678;52.052;4.242;2022-12-11T01:50:17;101166.09;;;2.04;100.00
36692;BME280;22678;52.052;4.242;2022-12-11T01:52:45;101143.31;;;1.96;100.00
36692;BME280;22678;52.052;4.242;2022-12-11T01:55:12;101131.13;;;1.91;100.00
36692;BME280;22678;52.052;4.242;2022-12-11T01:57:41;101135.53;;;1.96;100.00
36692;BME280;22678;52.052;4.242;2022-12-11T02:00:08;101160.16;;;2.08;100.00
36692;BME280;22678;52.052;4.242;2022-12-11T02:02:33;101154.00;;;2.05;100.00
36692;BME280;22678;52.052;4.242;2022-12-11T02:05:01;101150.66;;;2.09;100.00
36692;BME280;22678;52.052;4.242;2022-12-11T02:07:29;101154.19;;;2.11;100.00
36692;BME280;22678;52.052;4.242;2022-12-11T02:09:58;101150.63;;;2.07;100.00
36692;BME280;22678;52.052;4.242;2022-12-11T02:12:56;101149.94;;;2.13;100.00
36692;BME280;22678;52.052;4.242;2022-12-11T02:15:39;101145.38;;;2.06;100.00
36692;BME280;22678;52.052;4.242;2022-12-11T02:18:27;101150.78;;;2.12;100.00
36692;BME280;22678;52.052;4.242;2022-12-11T02:21:27;101154.19;;;2.11;100.00
36692;BME280;22678;52.052;4.242;2022-12-11T02:24:22;101150.66;;;2.09;100.00
36692;BME280;22678;52.052;4.242;2022-12-11T02:26:59;101151.59;;;2.11;100.00
36692;BME280;22678;52.052;4.242;2022-12-11T02:32:24;101137.53;;;2.04;100.00
36692;BME280;22678;52.052;4.242;2022-12-11T02:35:11;101145.47;;;2.09;100.00
36692;BME280;22678;52.052;4.242;2022-12-11T02:37:40;101141.00;;;2.03;100.00
36692;BME280;22678;52.052;4.242;2022-12-11T02:40:08;101143.63;;;2.05;100.00
36692;BME280;22678;52.052;4.242;2022-12-11T02:42:36;101146.31;;;2.08;100.00
36692;BME280;22678;52.052;4.242;2022-12-11T02:45:04;101134.81;;;2.00;100.00
36692;BME280;22678;52.052;4.242;2022-12-11T02:47:32;101118.19;;;1.93;100.00
36692;BME280;22678;52.052;4.242;2022-12-11T02:49:59;101138.34;;;2.02;100.00
36692;BME280;22678;52.052;4.242;2022-12-11T02:52:26;101127.84;;;1.99;100.00
36692;BME280;22678;52.052;4.242;2022-12-11T02:54:57;101126.06;;;1.96;100.00
36692;BME280;22678;52.052;4.242;2022-12-11T02:57:28;101137.34;;;1.98;100.00
36692;BME280;22678;52.052;4.242;2022-12-11T02:59:55;101137.50;;;2.03;100.00
36692;BME280;22678;52.052;4.242;2022-12-11T03:02:20;101130.41;;;1.97;100.00
36692;BME280;22678;52.052;4.242;2022-12-11T03:04:46;101131.22;;;1.95;100.00
36692;BME280;22678;52.052;4.242;2022-12-11T03:07:20;101136.59;;;2.01;100.00
36692;BME280;22678;52.052;4.242;2022-12-11T03:09:47;101122.47;;;1.92;100.00
36692;BME280;22678;52.052;4.242;2022-12-11T03:12:17;101128.66;;;1.96;100.00
36692;BME280;22678;52.052;4.242;2022-12-11T03:14:43;101126.13;;;1.98;100.00
36692;BME280;22678;52.052;4.242;2022-12-11T03:19:48;101134.72;;;1.97;100.00
36692;BME280;22678;52.052;4.242;2022-12-11T03:22:18;101126.06;;;1.96;100.00
36692;BME280;22678;52.052;4.242;2022-12-11T03:24:50;101114.69;;;1.92;100.00
36692;BME280;22678;52.052;4.242;2022-12-11T03:27:31;101116.56;;;1.97;100.00
36692;BME280;22678;52.052;4.242;2022-12-11T03:30:04;101125.25;;;1.99;100.00
36692;BME280;22678;52.052;4.242;2022-12-11T03:32:36;101119.06;;;1.93;100.00
36692;BME280;22678;52.052;4.242;2022-12-11T03:35:07;101118.28;;;1.96;100.00
36692;BME280;22678;52.052;4.242;2022-12-11T03:37:38;101111.19;;;1.90;100.00
36692;BME280;22678;52.052;4.242;2022-12-11T03:40:11;101108.59;;;1.90;100.00
36692;BME280;22678;52.052;4.242;2022-12-11T03:42:38;101112.19;;;1.96;100.00
36692;BME280;22678;52.052;4.242;2022-12-11T03:45:05;101105.22;;;1.93;100.00
36692;BME280;22678;52.052;4.242;2022-12-11T03:47:32;101093.81;;;1.88;100.00
36692;BME280;22678;52.052;4.242;2022-12-11T03:49:58;101108.78;;;1.97;100.00
36692;BME280;22678;52.052;4.242;2022-12-11T03:52:25;101092.22;;;1.91;100.00
36692;BME280;22678;52.052;4.242;2022-12-11T03:54:53;101094.75;;;1.90;100.00
36692;BME280;22678;52.052;4.242;2022-12-11T03:57:25;101089.63;;;1.91;100.00
36692;BME280;22678;52.052;4.242;2022-12-11T03:59:52;101105.47;;;2.01;100.00
36692;BME280;22678;52.052;4.242;2022-12-11T04:02:17;101098.50;;;2.00;100.00
36692;BME280;22678;52.052;4.242;2022-12-11T04:04:42;101086.25;;;1.96;100.00
36692;BME280;22678;52.052;4.242;2022-12-11T04:07:08;101095.09;;;2.01;100.00
36692;BME280;22678;52.052;4.242;2022-12-11T04:09:34;101094.13;;;1.99;100.00
36692;BME280;22678;52.052;4.242;2022-12-11T04:12:00;101075.78;;;1.92;100.00
36692;BME280;22678;52.052;4.242;2022-12-11T04:14:25;101080.22;;;1.95;100.00
36692;BME280;22678;52.052;4.242;2022-12-11T04:17:09;101084.69;;;2.01;100.00
36692;BME280;22678;52.052;4.242;2022-12-11T04:19:35;101066.31;;;1.93;100.00
36692;BME280;22678;52.052;4.242;2022-12-11T04:22:19;101068.25;;;2.00;100.00
36692;BME280;22678;52.052;4.242;2022-12-11T04:25:05;101065.59;;;1.99;100.00
36692;BME280;22678;52.052;4.242;2022-12-11T04:27:31;101062.03;;;1.95;100.00
36692;BME280;22678;52.052;4.242;2022-12-11T04:30:18;101079.59;;;2.04;100.00
36692;BME280;22678;52.052;4.242;2022-12-11T04:32:43;101062.00;;;1.93;100.00
36692;BME280;22678;52.052;4.242;2022-12-11T04:35:09;101066.31;;;1.93;100.00
36692;BME280;22678;52.052;4.242;2022-12-11T04:37:36;101064.50;;;1.90;100.00
36692;BME280;22678;52.052;4.242;2022-12-11T04:40:08;101055.72;;;1.87;100.00
36692;BME280;22678;52.052;4.242;2022-12-11T04:42:33;101060.91;;;1.87;100.00
36692;BME280;22678;52.052;4.242;2022-12-11T04:44:59;101057.50;;;1.88;100.00
36692;BME280;22678;52.052;4.242;2022-12-11T04:47:24;101071.47;;;1.91;100.00
36692;BME280;22678;52.052;4.242;2022-12-11T04:49:49;101068.75;;;1.88;100.00
36692;BME280;22678;52.052;4.242;2022-12-11T04:52:16;101071.56;;;1.95;100.00
36692;BME280;22678;52.052;4.242;2022-12-11T04:54:41;101062.56;;;1.83;100.00
36692;BME280;22678;52.052;4.242;2022-12-11T04:57:07;101060.78;;;1.82;100.00
36692;BME280;22678;52.052;4.242;2022-12-11T04:59:32;101065.16;;;1.83;100.00
36692;BME280;22678;52.052;4.242;2022-12-11T05:01:57;101067.78;;;1.85;99.99
36692;BME280;22678;52.052;4.242;2022-12-11T05:04:23;101064.19;;;1.80;99.76
36692;BME280;22678;52.052;4.242;2022-12-11T05:06:49;101058.09;;;1.79;100.00
36692;BME280;22678;52.052;4.242;2022-12-11T05:09:15;101066.81;;;1.81;100.00
36692;BME280;22678;52.052;4.242;2022-12-11T05:11:41;101062.31;;;1.75;99.88
36692;BME280;22678;52.052;4.242;2022-12-11T05:14:06;101068.66;;;1.85;99.99
36692;BME280;22678;52.052;4.242;2022-12-11T05:16:31;101059.00;;;1.80;99.99
36692;BME280;22678;52.052;4.242;2022-12-11T05:18:57;101054.69;;;1.80;99.33
36692;BME280;22678;52.052;4.242;2022-12-11T05:21:22;101036.22;;;1.69;99.54
36692;BME280;22678;52.052;4.242;2022-12-11T05:23:47;101049.50;;;1.80;99.54
36692;BME280;22678;52.052;4.242;2022-12-11T05:26:16;101057.22;;;1.79;99.64
36692;BME280;22678;52.052;4.242;2022-12-11T05:28:42;101059.78;;;1.77;99.61
36692;BME280;22678;52.052;4.242;2022-12-11T05:31:14;100987.50;;;1.32;99.25
36692;BME280;22678;52.052;4.242;2022-12-11T05:33:41;101059.69;;;1.74;99.47
36692;BME280;22678;52.052;4.242;2022-12-11T05:36:07;101055.22;;;1.70;99.26
36692;BME280;22678;52.052;4.242;2022-12-11T05:38:33;101053.38;;;1.66;99.40
36692;BME280;22678;52.052;4.242;2022-12-11T05:41:04;101034.16;;;1.59;98.94
36692;BME280;22678;52.052;4.242;2022-12-11T05:43:32;101059.38;;;1.65;99.19
36692;BME280;22678;52.052;4.242;2022-12-11T05:46:09;101046.28;;;1.60;99.31
36692;BME280;22678;52.052;4.242;2022-12-11T05:48:35;101035.75;;;1.55;98.56
36692;BME280;22678;52.052;4.242;2022-12-11T05:51:02;101042.63;;;1.53;98.98
36692;BME280;22678;52.052;4.242;2022-12-11T05:53:28;101049.63;;;1.57;98.59
36692;BME280;22678;52.052;4.242;2022-12-11T05:55:53;101052.22;;;1.57;99.02
36692;BME280;22678;52.052;4.242;2022-12-11T05:58:20;101051.22;;;1.52;98.93
36692;BME280;22678;52.052;4.242;2022-12-11T06:00:45;101050.31;;;1.50;98.82
36692;BME280;22678;52.052;4.242;2022-12-11T06:03:11;101043.25;;;1.46;98.81
36692;BME280;22678;52.052;4.242;2022-12-11T06:05:40;101054.53;;;1.48;98.84
36692;BME280;22678;52.052;4.242;2022-12-11T06:08:06;101064.28;;;1.55;98.43
36692;BME280;22678;52.052;4.242;2022-12-11T06:10:32;101057.22;;;1.51;98.77
36692;BME280;22678;52.052;4.242;2022-12-11T06:12:57;101053.72;;;1.49;98.54
36692;BME280;22678;52.052;4.242;2022-12-11T06:15:22;101057.13;;;1.48;98.72
36692;BME280;22678;52.052;4.242;2022-12-11T06:17:48;101044.91;;;1.44;98.81
36692;BME280;22678;52.052;4.242;2022-12-11T06:20:13;101062.50;;;1.54;98.55
36692;BME280;22678;52.052;4.242;2022-12-11T06:22:38;101054.59;;;1.50;98.93
36692;BME280;22678;52.052;4.242;2022-12-11T06:25:04;101059.00;;;1.52;98.49
36692;BME280;22678;52.052;4.242;2022-12-11T06:27:30;101067.69;;;1.54;98.70
36692;BME280;22678;52.052;4.242;2022-12-11T06:29:55;101061.53;;;1.51;98.36
36692;BME280;22678;52.052;4.242;2022-12-11T06:32:21;101070.44;;;1.59;98.58
36692;BME280;22678;52.052;4.242;2022-12-11T06:34:46;101051.16;;;1.51;98.56
36692;BME280;22678;52.052;4.242;2022-12-11T06:37:12;101040.53;;;1.42;98.52
36692;BME280;22678;52.052;4.242;2022-12-11T06:39:37;101060.13;;;1.61;98.58
36692;BME280;22678;52.052;4.242;2022-12-11T06:42:03;101056.63;;;1.60;98.86
36692;BME280;22678;52.052;4.242;2022-12-11T06:44:28;101032.88;;;1.46;98.27
36692;BME280;22678;52.052;4.242;2022-12-11T06:46:53;101050.50;;;1.56;98.81
36692;BME280;22678;52.052;4.242;2022-12-11T06:49:19;101051.25;;;1.54;98.68
36692;BME280;22678;52.052;4.242;2022-12-11T06:51:44;101041.56;;;1.48;98.71
36692;BME280;22678;52.052;4.242;2022-12-11T06:54:09;101037.97;;;1.43;98.66
36692;BME280;22678;52.052;4.242;2022-12-11T06:56:34;101036.28;;;1.45;98.42
36692;BME280;22678;52.052;4.242;2022-12-11T06:59:00;101051.25;;;1.54;98.47
36692;BME280;22678;52.052;4.242;2022-12-11T07:01:27;101062.72;;;1.61;98.59
36692;BME280;22678;52.052;4.242;2022-12-11T07:03:58;101055.78;;;1.60;98.65
36692;BME280;22678;52.052;4.242;2022-12-11T07:06:25;101057.53;;;1.61;98.62
36692;BME280;22678;52.052;4.242;2022-12-11T07:08:51;101047.84;;;1.55;98.50
36692;BME280;22678;52.052;4.242;2022-12-11T07:11:18;101039.00;;;1.48;98.36
36692;BME280;22678;52.052;4.242;2022-12-11T07:13:44;101050.50;;;1.56;98.71
36692;BME280;22678;52.052;4.242;2022-12-11T07:16:12;101044.16;;;1.48;98.40
36692;BME280;22678;52.052;4.242;2022-12-11T07:18:43;101050.41;;;1.53;98.40
36692;BME280;22678;52.052;4.242;2022-12-11T07:21:11;101050.25;;;1.49;98.43
36692;BME280;22678;52.052;4.242;2022-12-11T07:23:37;101049.16;;;1.42;98.12
36692;BME280;22678;52.052;4.242;2022-12-11T07:26:08;101047.25;;;1.36;97.91
36692;BME280;22678;52.052;4.242;2022-12-11T07:28:34;101069.13;;;1.45;98.00
36692;BME280;22678;52.052;4.242;2022-12-11T07:33:32;101059.28;;;1.34;97.73
36692;BME280;22678;52.052;4.242;2022-12-11T07:36:01;101069.75;;;1.37;97.88
36692;BME280;22678;52.052;4.242;2022-12-11T07:38:27;101079.97;;;1.33;97.47
36692;BME280;22678;52.052;4.242;2022-12-11T07:40:52;101072.03;;;1.28;97.55
36692;BME280;22678;52.052;4.242;2022-12-11T07:43:18;101063.28;;;1.25;97.37
36692;BME280;22678;52.052;4.242;2022-12-11T07:45:43;101059.56;;;1.16;97.64
36692;BME280;22678;52.052;4.242;2022-12-11T07:48:08;101072.75;;;1.24;97.53
36692;BME280;22678;52.052;4.242;2022-12-11T07:50:34;101087.53;;;1.27;97.44
36692;BME280;22678;52.052;4.242;2022-12-11T07:52:59;101077.84;;;1.21;97.51
36692;BME280;22678;52.052;4.242;2022-12-11T07:55:24;101070.69;;;1.14;97.39
36692;BME280;22678;52.052;4.242;2022-12-11T07:57:50;101085.63;;;1.21;97.41
36692;BME280;22678;52.052;4.242;2022-12-11T08:00:15;101083.06;;;1.22;97.60
36692;BME280;22678;52.052;4.242;2022-12-11T08:02:41;101076.06;;;1.20;97.48
36692;BME280;22678;52.052;4.242;2022-12-11T08:05:07;101074.25;;;1.17;97.26
36692;BME280;22678;52.052;4.242;2022-12-11T08:07:33;101068.16;;;1.15;97.50
36692;BME280;22678;52.052;4.242;2022-12-11T08:09:59;101072.38;;;1.13;97.45
36692;BME280;22678;52.052;4.242;2022-12-11T08:12:24;101068.06;;;1.12;97.01
36692;BME280;22678;52.052;4.242;2022-12-11T08:14:50;101075.09;;;1.16;97.43
36692;BME280;22678;52.052;4.242;2022-12-11T08:17:15;101066.22;;;1.10;97.07
36692;BME280;22678;52.052;4.242;2022-12-11T08:19:40;101084.72;;;1.20;97.36
36692;BME280;22678;52.052;4.242;2022-12-11T08:22:06;101077.75;;;1.18;97.08
36692;BME280;22678;52.052;4.242;2022-12-11T08:24:31;101075.09;;;1.16;97.31
36692;BME280;22678;52.052;4.242;2022-12-11T08:26:56;101061.91;;;1.10;97.12
36692;BME280;22678;52.052;4.242;2022-12-11T08:29:22;101075.97;;;1.17;97.27
36692;BME280;22678;52.052;4.242;2022-12-11T08:31:47;101071.63;;;1.16;97.30
36692;BME280;22678;52.052;4.242;2022-12-11T08:34:13;101083.91;;;1.21;97.25
36692;BME280;22678;52.052;4.242;2022-12-11T08:36:38;101083.03;;;1.21;96.95
36692;BME280;22678;52.052;4.242;2022-12-11T08:39:04;101078.63;;;1.18;97.02
36692;BME280;22678;52.052;4.242;2022-12-11T08:41:29;101061.00;;;1.08;97.27
36692;BME280;22678;52.052;4.242;2022-12-11T08:43:56;101055.81;;;1.08;97.29
36692;BME280;22678;52.052;4.242;2022-12-11T08:46:23;101086.53;;;1.23;97.29
36692;BME280;22678;52.052;4.242;2022-12-11T08:48:49;101075.31;;;1.22;97.10
36692;BME280;22678;52.052;4.242;2022-12-11T08:51:16;101076.16;;;1.23;97.25
36692;BME280;22678;52.052;4.242;2022-12-11T08:53:42;101084.75;;;1.22;97.23
36692;BME280;22678;52.052;4.242;2022-12-11T08:56:14;101080.59;;;1.26;97.05
36692;BME280;22678;52.052;4.242;2022-12-11T08:58:40;101075.50;;;1.29;96.76
36692;BME280;22678;52.052;4.242;2022-12-11T09:01:07;101068.50;;;1.26;97.37
36692;BME280;22678;52.052;4.242;2022-12-11T09:03:33;101080.00;;;1.34;97.51
36692;BME280;22678;52.052;4.242;2022-12-11T09:05:59;101085.59;;;1.47;97.01
36692;BME280;22678;52.052;4.242;2022-12-11T09:08:24;101077.97;;;1.51;97.52
36692;BME280;22678;52.052;4.242;2022-12-11T09:10:49;101067.69;;;1.54;97.56
36692;BME280;22678;52.052;4.242;2022-12-11T09:13:15;101066.03;;;1.56;97.43
36692;BME280;22678;52.052;4.242;2022-12-11T09:15:40;101052.13;;;1.54;96.97
36692;BME280;22678;52.052;4.242;2022-12-11T09:18:06;101075.16;;;1.71;97.22
36692;BME280;22678;52.052;4.242;2022-12-11T09:20:31;101060.38;;;1.68;97.20
36692;BME280;22678;52.052;4.242;2022-12-11T09:22:56;101077.84;;;1.74;96.94
36692;BME280;22678;52.052;4.242;2022-12-11T09:25:22;101058.50;;;1.64;96.99
36692;BME280;22678;52.052;4.242;2022-12-11T09:27:47;101069.75;;;1.65;96.85
36692;BME280;22678;52.052;4.242;2022-12-11T09:30:13;101071.66;;;1.70;96.72
36692;BME280;22678;52.052;4.242;2022-12-11T09:32:38;101083.94;;;1.76;96.57
36692;BME280;22678;52.052;4.242;2022-12-11T09:35:04;101065.78;;;1.76;96.84
36692;BME280;22678;52.052;4.242;2022-12-11T09:37:29;101055.22;;;1.70;96.43
36692;BME280;22678;52.052;4.242;2022-12-11T09:39:55;101062.41;;;1.79;96.38
36692;BME280;22678;52.052;4.242;2022-12-11T09:42:29;101058.00;;;1.76;96.61
36692;BME280;22678;52.052;4.242;2022-12-11T09:45:00;101065.06;;;1.80;96.34
36692;BME280;22678;52.052;4.242;2022-12-11T09:47:33;101078.44;;;1.94;96.64
36692;BME280;22678;52.052;4.242;2022-12-11T09:55:34;101062.66;;;2.15;96.22
36692;BME280;22678;52.052;4.242;2022-12-11T09:58:12;101066.44;;;2.26;95.59
36692;BME280;22678;52.052;4.242;2022-12-11T10:01:27;101075.94;;;2.26;95.34
36692;BME280;22678;52.052;4.242;2022-12-11T10:06:21;101083.50;;;2.18;95.27
36692;BME280;22678;52.052;4.242;2022-12-11T10:12:04;101073.63;;;2.06;95.55
36692;BME280;22678;52.052;4.242;2022-12-11T10:14:46;101060.63;;;2.05;95.50
36692;BME280;22678;52.052;4.242;2022-12-11T10:17:33;101080.72;;;2.12;95.48
36692;BME280;22678;52.052;4.242;2022-12-11T10:20:31;101056.31;;;2.05;95.25
36692;BME280;22678;52.052;4.242;2022-12-11T10:23:01;101079.97;;;2.16;95.55
36692;BME280;22678;52.052;4.242;2022-12-11T10:25:40;101069.59;;;2.16;95.31
36692;BME280;22678;52.052;4.242;2022-12-11T10:28:16;101061.75;;;2.15;95.89
36692;BME280;22678;52.052;4.242;2022-12-11T10:30:54;101052.19;;;2.12;95.28
36692;BME280;22678;52.052;4.242;2022-12-11T10:33:39;101050.59;;;2.17;95.29
36692;BME280;22678;52.052;4.242;2022-12-11T10:36:06;101051.69;;;2.24;95.72
36692;BME280;22678;52.052;4.242;2022-12-11T10:38:38;101043.94;;;2.25;95.48
36692;BME280;22678;52.052;4.242;2022-12-11T10:41:10;101053.69;;;2.34;95.66
36692;BME280;22678;52.052;4.242;2022-12-11T10:43:41;101024.91;;;2.26;95.73
36692;BME280;22678;52.052;4.242;2022-12-11T10:46:22;101019.75;;;2.28;95.36
36692;BME280;22678;52.052;4.242;2022-12-11T10:48:53;101040.09;;;2.43;95.66
36692;BME280;22678;52.052;4.242;2022-12-11T10:51:45;101045.38;;;2.46;95.32
36692;BME280;22678;52.052;4.242;2022-12-11T10:54:31;101041.09;;;2.48;95.15
36692;BME280;22678;52.052;4.242;2022-12-11T10:56:59;101035.09;;;2.49;95.27
36692;BME280;22678;52.052;4.242;2022-12-11T10:59:45;101037.22;;;2.64;95.30
36692;BME280;22678;52.052;4.242;2022-12-11T11:02:32;101034.66;;;2.66;95.19
36692;BME280;22678;52.052;4.242;2022-12-11T11:05:00;101036.50;;;2.70;94.66
36692;BME280;22678;52.052;4.242;2022-12-11T11:07:34;101028.47;;;2.62;94.43
36692;BME280;22678;52.052;4.242;2022-12-11T11:10:15;101016.25;;;2.56;94.71
36692;BME280;22678;52.052;4.242;2022-12-11T11:12:48;101031.91;;;2.59;94.46
36692;BME280;22678;52.052;4.242;2022-12-11T11:15:17;101027.38;;;2.52;94.40
36692;BME280;22678;52.052;4.242;2022-12-11T11:17:49;101003.69;;;2.41;94.34
36692;BME280;22678;52.052;4.242;2022-12-11T11:20:19;101034.34;;;2.53;94.19
36692;BME280;22678;52.052;4.242;2022-12-11T11:22:49;101019.38;;;2.44;94.40
36692;BME280;22678;52.052;4.242;2022-12-11T11:25:26;101032.47;;;2.49;94.05
36692;BME280;22678;52.052;4.242;2022-12-11T11:27:55;101037.75;;;2.52;94.00
36692;BME280;22678;52.052;4.242;2022-12-11T11:30:28;101038.63;;;2.53;94.22
36692;BME280;22678;52.052;4.242;2022-12-11T11:33:03;101042.13;;;2.53;94.12
36692;BME280;22678;52.052;4.242;2022-12-11T11:35:30;101034.34;;;2.53;94.05
36692;BME280;22678;52.052;4.242;2022-12-11T11:40:38;101027.38;;;2.52;93.83
36692;BME280;22678;52.052;4.242;2022-12-11T11:43:15;101019.53;;;2.51;93.97
36692;BME280;22678;52.052;4.242;2022-12-11T11:48:30;101022.22;;;2.54;93.93
36692;BME280;22678;52.052;4.242;2022-12-11T11:51:10;101020.50;;;2.54;93.76
36692;BME280;22678;52.052;4.242;2022-12-11T11:53:38;101021.34;;;2.53;93.76
36692;BME280;22678;52.052;4.242;2022-12-11T11:56:21;101022.22;;;2.54;93.22
36692;BME280;22678;52.052;4.242;2022-12-11T11:59:10;101016.16;;;2.53;93.16
36692;BME280;22678;52.052;4.242;2022-12-11T12:01:40;101022.19;;;2.52;92.95
36692;BME280;22678;52.052;4.242;2022-12-11T12:04:07;101015.13;;;2.48;92.89
36692;BME280;22678;52.052;4.242;2022-12-11T12:06:41;101004.44;;;2.36;92.92
36692;BME280;22678;52.052;4.242;2022-12-11T12:15:05;101015.22;;;2.51;92.56
36692;BME280;22678;52.052;4.242;2022-12-11T12:17:55;101013.50;;;2.52;92.95
36692;BME280;22678;52.052;4.242;2022-12-11T12:25:51;101018.91;;;2.59;92.78
36692;BME280;22678;52.052;4.242;2022-12-11T12:44:52;101011.22;;;2.62;91.98
36692;BME280;22678;52.052;4.242;2022-12-11T12:47:25;101005.91;;;2.58;92.04
36692;BME280;22678;52.052;4.242;2022-12-11T12:49:52;101012.03;;;2.61;91.97
36692;BME280;22678;52.052;4.242;2022-12-11T12:52:25;101008.53;;;2.59;92.10
36692;BME280;22678;52.052;4.242;2022-12-11T12:54:56;101008.53;;;2.59;91.73
36692;BME280;22678;52.052;4.242;2022-12-11T12:58:01;100994.53;;;2.54;91.61
36692;BME280;22678;52.052;4.242;2022-12-11T13:02:56;100988.50;;;2.55;91.26
36692;BME280;22678;52.052;4.242;2022-12-11T13:05:24;100985.84;;;2.52;91.41
36692;BME280;22678;52.052;4.242;2022-12-11T13:07:56;100982.13;;;2.44;91.27
36692;BME280;22678;52.052;4.242;2022-12-11T13:10:30;101007.63;;;2.59;90.86
36692;BME280;22678;52.052;4.242;2022-12-11T13:12:57;100975.09;;;2.40;90.52
36692;BME280;22678;52.052;4.242;2022-12-11T13:15:38;101002.25;;;2.51;90.61
36692;BME280;22678;52.052;4.242;2022-12-11T13:18:36;101003.09;;;2.52;90.72
36692;BME280;22678;52.052;4.242;2022-12-11T13:23:50;100982.09;;;2.42;90.74
36692;BME280;22678;52.052;4.242;2022-12-11T13:26:27;101004.03;;;2.54;90.60
36692;BME280;22678;52.052;4.242;2022-12-11T13:28:53;101003.19;;;2.53;90.14
36692;BME280;22678;52.052;4.242;2022-12-11T13:33:48;101013.75;;;2.61;90.28
36692;BME280;22678;52.052;4.242;2022-12-11T13:38:45;101020.56;;;2.57;89.68
36692;BME280;22678;52.052;4.242;2022-12-11T13:41:11;101020.50;;;2.54;89.67
36692;BME280;22678;52.052;4.242;2022-12-11T13:43:40;101000.28;;;2.42;89.52
36692;BME280;22678;52.052;4.242;2022-12-11T13:46:08;101018.59;;;2.49;89.42
36692;BME280;22678;52.052;4.242;2022-12-11T13:48:38;101003.44;;;2.32;89.04
36692;BME280;22678;52.052;4.242;2022-12-11T13:51:16;101009.63;;;2.36;89.24
36692;BME280;22678;52.052;4.242;2022-12-11T13:53:42;101003.66;;;2.40;89.12
36692;BME280;22678;52.052;4.242;2022-12-11T13:56:16;101008.88;;;2.41;89.02
36692;BME280;22678;52.052;4.242;2022-12-11T13:58:42;101005.47;;;2.42;88.86
36692;BME280;22678;52.052;4.242;2022-12-11T14:03:52;101011.44;;;2.40;88.66
36692;BME280;22678;52.052;4.242;2022-12-11T14:06:18;101027.22;;;2.46;88.65
36692;BME280;22678;52.052;4.242;2022-12-11T14:08:44;101022.03;;;2.46;88.61
36692;BME280;22678;52.052;4.242;2022-12-11T14:11:20;101009.69;;;2.39;88.32